createdAt,value
2017-12-26T00:00:15.254Z,4
2017-12-26T00:05:15.469Z,4
2017-12-26T00:10:18.516Z,3.9
2017-12-26T00:15:25.259Z,3.9
2017-12-26T00:20:02.565Z,3.9
2017-12-26T00:25:07.784Z,3.7
2017-12-26T00:35:03.146Z,3.7
2017-12-26T00:40:07.882Z,3.6
2017-12-26T00:45:13.227Z,3.5
2017-12-26T00:50:04.994Z,3.4
2017-12-26T00:55:20.337Z,3.4
2017-12-26T01:00:05.152Z,3.3
2017-12-26T01:10:10.022Z,3.2
2017-12-26T01:15:17.898Z,3.1
2017-12-26T01:20:05.805Z,3.1
2017-12-26T01:25:12.715Z,3.1
2017-12-26T01:30:05.517Z,3
2017-12-26T01:35:33.527Z,2.9
2017-12-26T01:40:08.298Z,2.9
2017-12-26T01:45:13.458Z,2.9
2017-12-26T01:50:05.293Z,2.9
2017-12-26T01:55:08.095Z,2.9
2017-12-26T02:00:28.604Z,2.8
2017-12-26T02:05:07.918Z,2.8
2017-12-26T02:10:10.199Z,2.7
2017-12-26T02:15:07.847Z,2.7
2017-12-26T02:20:02.731Z,2.7
2017-12-26T02:25:07.948Z,2.4
2017-12-26T02:30:05.680Z,2.7
2017-12-26T02:35:20.112Z,2.6
2017-12-26T02:40:07.861Z,2.5
2017-12-26T02:50:03.262Z,2.5
2017-12-26T02:55:07.419Z,2.4
2017-12-26T03:00:05.100Z,2.5
2017-12-26T03:05:05.398Z,2.5
2017-12-26T03:10:10.726Z,2.5
2017-12-26T03:15:03.378Z,2.5
2017-12-26T03:20:02.789Z,2.5
2017-12-26T03:25:18.169Z,2.4
2017-12-26T03:30:15.130Z,2.4
2017-12-26T03:35:07.746Z,2.3
2017-12-26T03:40:15.234Z,2.3
2017-12-26T03:45:10.322Z,2.3
2017-12-26T03:50:05.146Z,2.2
2017-12-26T03:55:02.859Z,2.3
2017-12-26T04:00:08.124Z,2.3
2017-12-26T04:05:05.868Z,2.3
2017-12-26T04:10:32.946Z,2.3
2017-12-26T04:15:13.268Z,2.3
2017-12-26T04:20:02.567Z,2.3
2017-12-26T04:25:02.791Z,2.3
2017-12-26T04:30:08.128Z,2.2
2017-12-26T04:35:05.792Z,2.1
2017-12-26T04:45:05.136Z,2
2017-12-26T04:50:25.136Z,2
2017-12-26T04:55:07.415Z,2
2017-12-26T05:00:10.356Z,1.9
2017-12-26T05:05:18.089Z,1.9
2017-12-26T05:10:25.523Z,1.9
2017-12-26T05:15:05.237Z,1.9
2017-12-26T05:20:10.089Z,2
2017-12-26T05:25:35.668Z,1.9
2017-12-26T05:30:02.933Z,1.9
2017-12-26T05:35:13.222Z,2
2017-12-26T05:40:23.085Z,2
2017-12-26T05:45:26.003Z,2.1
2017-12-26T05:50:05.726Z,2.2
2017-12-26T05:55:04.977Z,2.3
2017-12-26T06:00:03.209Z,2.3
2017-12-26T06:05:07.537Z,2.4
2017-12-26T06:10:15.878Z,2.5
2017-12-26T06:15:02.456Z,2.5
2017-12-26T06:20:20.472Z,2.9
2017-12-26T06:25:08.085Z,3.1
2017-12-26T06:30:15.938Z,3.2
2017-12-26T06:35:17.862Z,3.2
2017-12-26T06:40:10.165Z,3.2
2017-12-26T06:45:07.858Z,3.2
2017-12-26T06:50:28.482Z,3.3
2017-12-26T06:55:25.541Z,3.3
2017-12-26T07:00:07.800Z,3.3
2017-12-26T07:05:38.449Z,3.3
2017-12-26T07:10:20.830Z,3.3
2017-12-26T07:15:31.183Z,3.3
2017-12-26T07:20:10.116Z,3.3
2017-12-26T07:25:02.678Z,3.3
2017-12-26T07:30:02.891Z,3.3
2017-12-26T07:35:18.266Z,3.2
2017-12-26T07:40:03.086Z,3.2
2017-12-26T07:45:03.382Z,3.2
2017-12-26T07:50:02.619Z,3.2
2017-12-26T07:55:02.861Z,3.2
2017-12-26T08:00:15.702Z,3.2
2017-12-26T08:05:18.472Z,3.2
2017-12-26T08:10:08.251Z,3.2
2017-12-26T08:15:02.400Z,3.2
2017-12-26T08:20:10.245Z,3.3
2017-12-26T08:25:02.918Z,3.3
2017-12-26T08:30:10.734Z,3.4
2017-12-26T08:35:13.470Z,3.4
2017-12-26T08:40:08.237Z,3.4
2017-12-26T08:45:32.767Z,3.5
2017-12-26T08:50:10.584Z,3.5
2017-12-26T08:55:08.356Z,3.5
2017-12-26T09:00:05.131Z,3.6
2017-12-26T09:05:10.424Z,3.6
2017-12-26T09:10:10.724Z,3.7
2017-12-26T09:15:10.935Z,3.8
2017-12-26T09:20:05.762Z,3.8
2017-12-26T09:25:02.491Z,3.8
2017-12-26T09:30:02.811Z,3.8
2017-12-26T09:35:05.587Z,3.9
2017-12-26T09:40:03.350Z,3.9
2017-12-26T09:45:05.127Z,4.1
2017-12-26T09:50:12.614Z,4.3
2017-12-26T09:55:15.356Z,4.5
2017-12-26T10:00:02.620Z,4.5
2017-12-26T10:05:10.479Z,4.9
2017-12-26T10:10:13.362Z,5
2017-12-26T10:15:07.495Z,5.2
2017-12-26T10:25:08.025Z,2.5
2017-12-26T10:30:03.439Z,5.7
2017-12-26T10:35:10.204Z,6
2017-12-26T10:40:28.255Z,6.2
2017-12-26T10:45:05.078Z,6.4
2017-12-26T10:50:15.981Z,6.5
2017-12-26T10:55:10.126Z,6.9
2017-12-26T11:00:04.930Z,7.1
2017-12-26T11:05:25.388Z,7.5
2017-12-26T11:10:03.155Z,7.5
2017-12-26T11:20:07.641Z,8.4
2017-12-26T11:25:17.964Z,8.6
2017-12-26T11:30:03.226Z,8.6
2017-12-26T11:35:12.624Z,9.1
2017-12-26T11:40:16.040Z,9.2
2017-12-26T11:45:07.667Z,9.3
2017-12-26T11:50:20.656Z,9.4
2017-12-26T11:55:10.850Z,9.6
2017-12-26T12:00:08.310Z,9.8
2017-12-26T12:05:02.371Z,9.8
2017-12-26T12:10:18.361Z,9.8
2017-12-26T12:15:27.686Z,9.8
2017-12-26T12:20:03.028Z,9.8
2017-12-26T12:25:23.495Z,9.8
2017-12-26T12:30:07.798Z,9.7
2017-12-26T12:35:03.030Z,9.7
2017-12-26T12:40:12.968Z,9.6
2017-12-26T12:50:05.471Z,9.6
2017-12-26T12:55:15.880Z,9.6
2017-12-26T13:00:08.188Z,9.6
2017-12-26T13:05:10.085Z,9.7
2017-12-26T13:10:18.094Z,10
2017-12-26T13:15:08.242Z,10
2017-12-26T13:20:02.664Z,9.9
2017-12-26T13:25:18.243Z,9.9
2017-12-26T13:30:10.188Z,9.9
2017-12-26T13:35:20.590Z,9.8
2017-12-26T13:40:04.942Z,9.8
2017-12-26T13:45:15.331Z,9.7
2017-12-26T13:50:10.134Z,9.6
2017-12-26T13:55:02.867Z,9.6
2017-12-26T14:00:05.810Z,9
2017-12-26T14:05:10.133Z,8.8
2017-12-26T14:10:05.436Z,8.7
2017-12-26T14:15:05.657Z,8.6
2017-12-26T14:20:18.159Z,8.5
2017-12-26T14:25:33.675Z,8.4
2017-12-26T14:30:15.538Z,8.3
2017-12-26T14:35:18.327Z,8.2
2017-12-26T14:45:03.201Z,8.2
2017-12-26T14:50:02.661Z,8.2
2017-12-26T14:55:25.625Z,8
2017-12-26T15:00:30.634Z,8
2017-12-26T15:05:05.387Z,7.9
2017-12-26T15:10:30.989Z,7.8
2017-12-26T15:15:05.716Z,7.8
2017-12-26T15:20:05.551Z,7.8
2017-12-26T15:25:05.865Z,7.8
2017-12-26T15:30:08.184Z,7.7
2017-12-26T15:40:20.820Z,7.6
2017-12-26T15:45:02.407Z,7.6
2017-12-26T15:50:05.238Z,7.6
2017-12-26T15:55:02.926Z,7.6
2017-12-26T16:00:05.800Z,7.5
2017-12-26T16:05:17.643Z,7.5
2017-12-26T16:15:05.039Z,7.5
2017-12-26T16:20:35.374Z,7.5
2017-12-26T16:25:07.675Z,7.5
2017-12-26T16:30:18.144Z,7.4
2017-12-26T16:35:03.208Z,7.4
2017-12-26T16:40:08.053Z,7.2
2017-12-26T16:50:18.520Z,7.1
2017-12-26T16:55:12.643Z,7
2017-12-26T17:00:05.409Z,7
2017-12-26T17:05:08.206Z,7
2017-12-26T17:10:20.654Z,7
2017-12-26T17:15:18.370Z,7
2017-12-26T17:20:07.780Z,6.8
2017-12-26T17:25:20.736Z,6.7
2017-12-26T17:30:25.746Z,6.7
2017-12-26T17:35:10.551Z,6.6
2017-12-26T17:40:08.354Z,6.5
2017-12-26T17:45:27.802Z,6.4
2017-12-26T17:50:10.721Z,6.4
2017-12-26T17:55:04.939Z,6.3
2017-12-26T18:00:08.334Z,6.2
2017-12-26T18:05:02.401Z,6.2
2017-12-26T18:10:13.363Z,6.1
2017-12-26T18:15:28.665Z,6.1
2017-12-26T18:20:05.501Z,6
2017-12-26T18:25:08.213Z,5.9
2017-12-26T18:30:05.024Z,5.8
2017-12-26T18:40:10.932Z,5.6
2017-12-26T18:45:17.670Z,5.5
2017-12-26T18:50:05.388Z,5.5
2017-12-26T18:55:25.908Z,5.4
2017-12-26T19:00:25.865Z,5.3
2017-12-26T19:05:07.654Z,5.3
2017-12-26T19:10:04.956Z,5.2
2017-12-26T19:15:22.917Z,5.2
2017-12-26T19:20:33.532Z,5.2
2017-12-26T19:30:02.973Z,5.1
2017-12-26T19:35:16.098Z,4.9
2017-12-26T19:40:07.819Z,4.9
2017-12-26T19:45:03.324Z,4.9
2017-12-26T19:50:07.641Z,4.8
2017-12-26T19:55:07.868Z,4.8
2017-12-26T20:00:05.617Z,4.8
2017-12-26T20:05:02.375Z,4.8
2017-12-26T20:10:10.675Z,4.7
2017-12-26T20:15:21.069Z,4.7
2017-12-26T20:20:27.679Z,4.7
2017-12-26T20:25:10.488Z,4.7
2017-12-26T20:30:35.657Z,4.6
2017-12-26T20:35:05.486Z,4.6
2017-12-26T20:40:08.320Z,4.1
2017-12-26T20:45:07.470Z,4.5
2017-12-26T20:50:10.338Z,4.5
2017-12-26T20:55:07.959Z,4.5
2017-12-26T21:05:17.551Z,4.4
2017-12-26T21:10:03.258Z,4.4
2017-12-26T21:15:04.972Z,4.4
2017-12-26T21:25:02.420Z,4.5
2017-12-26T21:30:17.920Z,4.4
2017-12-26T21:35:02.870Z,4.4
2017-12-26T21:40:02.631Z,4.4
2017-12-26T21:45:20.567Z,4.3
2017-12-26T21:50:07.915Z,4.3
2017-12-26T21:55:10.524Z,4.3
2017-12-26T22:00:02.739Z,4.3
2017-12-26T22:05:33.286Z,4.3
2017-12-26T22:10:33.386Z,4.2
2017-12-26T22:15:25.419Z,4.1
2017-12-26T22:20:02.749Z,4.1
2017-12-26T22:25:10.551Z,4
2017-12-26T22:30:10.940Z,4
2017-12-26T22:35:02.572Z,4
2017-12-26T22:40:15.951Z,3.9
2017-12-26T22:50:02.590Z,3.9
2017-12-26T22:55:30.715Z,3.8
2017-12-26T23:00:03.120Z,3.8
2017-12-26T23:05:13.405Z,3.6
2017-12-26T23:10:03.187Z,3.6
2017-12-26T23:15:02.388Z,3.6
2017-12-26T23:20:17.918Z,3.5
2017-12-26T23:25:08.066Z,3.5
2017-12-26T23:30:08.394Z,3.5
2017-12-26T23:35:02.458Z,3.5
2017-12-26T23:40:10.785Z,3.4
2017-12-26T23:45:08.392Z,3.3
2017-12-26T23:50:12.735Z,3.3
2017-12-26T23:55:20.651Z,3.2
